sensor_id;sensor_type;location;lat;lon;timestamp;P1;durP1;ratioP1;P2;durP2;ratioP2
325;SDS011;150;52.352;14.058;2023-02-21T00:02:35;4.88;;;3.25;;
325;SDS011;150;52.352;14.058;2023-02-21T00:05:19;4.70;;;3.33;;
325;SDS011;150;52.352;14.058;2023-02-21T00:08:05;5.32;;;3.40;;
325;SDS011;150;52.352;14.058;2023-02-21T00:10:49;4.75;;;3.03;;
325;SDS011;150;52.352;14.058;2023-02-21T00:13:34;4.68;;;3.20;;
325;SDS011;150;52.352;14.058;2023-02-21T00:16:18;3.92;;;2.72;;
325;SDS011;150;52.352;14.058;2023-02-21T00:19:03;4.57;;;2.77;;
325;SDS011;150;52.352;14.058;2023-02-21T00:21:47;5.13;;;2.80;;
325;SDS011;150;52.352;14.058;2023-02-21T00:24:33;5.25;;;3.10;;
325;SDS011;150;52.352;14.058;2023-02-21T00:27:17;3.40;;;2.80;;
325;SDS011;150;52.352;14.058;2023-02-21T00:30:02;3.25;;;2.53;;
325;SDS011;150;52.352;14.058;2023-02-21T00:32:47;5.10;;;3.30;;
325;SDS011;150;52.352;14.058;2023-02-21T00:35:32;4.32;;;3.17;;
325;SDS011;150;52.352;14.058;2023-02-21T00:38:16;3.78;;;3.10;;
325;SDS011;150;52.352;14.058;2023-02-21T00:41:01;4.45;;;3.05;;
325;SDS011;150;52.352;14.058;2023-02-21T00:43:46;4.18;;;3.22;;
325;SDS011;150;52.352;14.058;2023-02-21T00:46:30;4.65;;;3.38;;
325;SDS011;150;52.352;14.058;2023-02-21T00:49:14;3.28;;;2.88;;
325;SDS011;150;52.352;14.058;2023-02-21T00:51:59;3.27;;;2.53;;
325;SDS011;150;52.352;14.058;2023-02-21T00:54:43;4.00;;;2.80;;
325;SDS011;150;52.352;14.058;2023-02-21T00:57:29;5.22;;;3.00;;
325;SDS011;150;52.352;14.058;2023-02-21T01:00:15;5.72;;;3.53;;
325;SDS011;150;52.352;14.058;2023-02-21T01:03:01;4.22;;;2.40;;
325;SDS011;150;52.352;14.058;2023-02-21T01:05:45;3.70;;;2.53;;
325;SDS011;150;52.352;14.058;2023-02-21T01:08:30;3.10;;;2.30;;
325;SDS011;150;52.352;14.058;2023-02-21T01:11:14;3.10;;;2.38;;
325;SDS011;150;52.352;14.058;2023-02-21T01:14:01;4.03;;;2.97;;
325;SDS011;150;52.352;14.058;2023-02-21T01:16:47;3.40;;;2.67;;
325;SDS011;150;52.352;14.058;2023-02-21T01:19:31;4.20;;;3.10;;
325;SDS011;150;52.352;14.058;2023-02-21T01:22:16;4.20;;;2.92;;
325;SDS011;150;52.352;14.058;2023-02-21T01:25:00;4.88;;;3.08;;
325;SDS011;150;52.352;14.058;2023-02-21T01:27:45;3.90;;;2.47;;
325;SDS011;150;52.352;14.058;2023-02-21T01:30:30;3.28;;;2.30;;
325;SDS011;150;52.352;14.058;2023-02-21T01:33:14;4.65;;;2.78;;
325;SDS011;150;52.352;14.058;2023-02-21T01:35:59;3.40;;;2.65;;
325;SDS011;150;52.352;14.058;2023-02-21T01:38:43;4.10;;;2.85;;
325;SDS011;150;52.352;14.058;2023-02-21T01:41:27;3.58;;;2.60;;
325;SDS011;150;52.352;14.058;2023-02-21T01:44:27;4.35;;;2.83;;
325;SDS011;150;52.352;14.058;2023-02-21T01:47:18;3.90;;;3.30;;
325;SDS011;150;52.352;14.058;2023-02-21T01:50:05;4.57;;;2.95;;
325;SDS011;150;52.352;14.058;2023-02-21T01:52:53;4.80;;;3.67;;
325;SDS011;150;52.352;14.058;2023-02-21T01:55:40;4.78;;;2.90;;
325;SDS011;150;52.352;14.058;2023-02-21T01:58:26;4.68;;;3.20;;
325;SDS011;150;52.352;14.058;2023-02-21T02:01:14;5.32;;;3.60;;
325;SDS011;150;52.352;14.058;2023-02-21T02:04:05;4.43;;;3.37;;
325;SDS011;150;52.352;14.058;2023-02-21T02:06:49;5.03;;;3.50;;
325;SDS011;150;52.352;14.058;2023-02-21T02:09:34;4.43;;;3.38;;
325;SDS011;150;52.352;14.058;2023-02-21T02:12:22;5.65;;;3.38;;
325;SDS011;150;52.352;14.058;2023-02-21T02:15:04;5.10;;;3.88;;
325;SDS011;150;52.352;14.058;2023-02-21T02:17:39;5.13;;;4.20;;
325;SDS011;150;52.352;14.058;2023-02-21T02:23:45;4.38;;;3.20;;
325;SDS011;150;52.352;14.058;2023-02-21T02:26:46;5.75;;;3.97;;
325;SDS011;150;52.352;14.058;2023-02-21T02:29:43;4.80;;;3.40;;
325;SDS011;150;52.352;14.058;2023-02-21T02:32:36;6.60;;;4.13;;
325;SDS011;150;52.352;14.058;2023-02-21T02:35:13;5.43;;;3.70;;
325;SDS011;150;52.352;14.058;2023-02-21T02:37:45;5.85;;;4.07;;
325;SDS011;150;52.352;14.058;2023-02-21T02:40:18;6.85;;;4.07;;
325;SDS011;150;52.352;14.058;2023-02-21T02:42:53;3.80;;;2.72;;
325;SDS011;150;52.352;14.058;2023-02-21T02:45:29;5.47;;;3.88;;
325;SDS011;150;52.352;14.058;2023-02-21T02:48:02;5.60;;;3.85;;
325;SDS011;150;52.352;14.058;2023-02-21T02:50:40;6.18;;;4.10;;
325;SDS011;150;52.352;14.058;2023-02-21T02:53:09;5.47;;;3.80;;
325;SDS011;150;52.352;14.058;2023-02-21T02:55:38;4.60;;;3.25;;
325;SDS011;150;52.352;14.058;2023-02-21T02:58:11;4.65;;;3.50;;
325;SDS011;150;52.352;14.058;2023-02-21T03:00:38;5.22;;;3.80;;
325;SDS011;150;52.352;14.058;2023-02-21T03:03:17;6.80;;;4.53;;
325;SDS011;150;52.352;14.058;2023-02-21T03:06:03;6.43;;;3.90;;
325;SDS011;150;52.352;14.058;2023-02-21T03:08:39;5.68;;;3.90;;
325;SDS011;150;52.352;14.058;2023-02-21T03:11:14;5.70;;;3.80;;
325;SDS011;150;52.352;14.058;2023-02-21T03:13:46;5.07;;;3.80;;
325;SDS011;150;52.352;14.058;2023-02-21T03:16:19;5.20;;;3.92;;
325;SDS011;150;52.352;14.058;2023-02-21T03:18:51;5.90;;;3.97;;
325;SDS011;150;52.352;14.058;2023-02-21T03:21:23;6.50;;;4.15;;
325;SDS011;150;52.352;14.058;2023-02-21T03:23:53;5.15;;;3.50;;
325;SDS011;150;52.352;14.058;2023-02-21T03:26:25;4.53;;;3.50;;
325;SDS011;150;52.352;14.058;2023-02-21T03:28:54;4.80;;;3.60;;
325;SDS011;150;52.352;14.058;2023-02-21T03:31:22;5.32;;;4.00;;
325;SDS011;150;52.352;14.058;2023-02-21T03:33:53;5.55;;;4.30;;
325;SDS011;150;52.352;14.058;2023-02-21T03:36:19;5.57;;;3.85;;
325;SDS011;150;52.352;14.058;2023-02-21T03:38:47;5.38;;;3.97;;
325;SDS011;150;52.352;14.058;2023-02-21T03:41:14;5.82;;;3.80;;
325;SDS011;150;52.352;14.058;2023-02-21T03:43:41;4.83;;;3.53;;
325;SDS011;150;52.352;14.058;2023-02-21T03:46:08;6.30;;;3.85;;
325;SDS011;150;52.352;14.058;2023-02-21T03:48:34;5.07;;;3.42;;
325;SDS011;150;52.352;14.058;2023-02-21T03:51:01;5.68;;;3.53;;
325;SDS011;150;52.352;14.058;2023-02-21T03:53:28;5.10;;;3.28;;
325;SDS011;150;52.352;14.058;2023-02-21T03:55:56;4.97;;;3.80;;
325;SDS011;150;52.352;14.058;2023-02-21T03:58:23;4.85;;;3.63;;
325;SDS011;150;52.352;14.058;2023-02-21T04:00:49;6.78;;;4.68;;
325;SDS011;150;52.352;14.058;2023-02-21T04:03:17;6.47;;;3.65;;
325;SDS011;150;52.352;14.058;2023-02-21T04:05:44;5.63;;;4.03;;
325;SDS011;150;52.352;14.058;2023-02-21T04:08:11;6.07;;;3.75;;
325;SDS011;150;52.352;14.058;2023-02-21T04:10:38;4.55;;;3.33;;
325;SDS011;150;52.352;14.058;2023-02-21T04:13:08;5.63;;;3.67;;
325;SDS011;150;52.352;14.058;2023-02-21T04:15:35;5.80;;;3.80;;
325;SDS011;150;52.352;14.058;2023-02-21T04:18:01;5.40;;;3.70;;
325;SDS011;150;52.352;14.058;2023-02-21T04:20:28;7.60;;;5.03;;
325;SDS011;150;52.352;14.058;2023-02-21T04:22:55;7.78;;;4.97;;
325;SDS011;150;52.352;14.058;2023-02-21T04:25:21;5.90;;;4.03;;
325;SDS011;150;52.352;14.058;2023-02-21T04:27:48;6.40;;;4.60;;
325;SDS011;150;52.352;14.058;2023-02-21T04:30:16;6.25;;;3.10;;
325;SDS011;150;52.352;14.058;2023-02-21T04:32:43;5.45;;;3.78;;
325;SDS011;150;52.352;14.058;2023-02-21T04:35:10;6.13;;;3.67;;
325;SDS011;150;52.352;14.058;2023-02-21T04:37:37;5.97;;;3.67;;
325;SDS011;150;52.352;14.058;2023-02-21T04:40:03;7.07;;;3.97;;
325;SDS011;150;52.352;14.058;2023-02-21T04:42:31;6.47;;;3.85;;
325;SDS011;150;52.352;14.058;2023-02-21T04:44:57;7.82;;;3.95;;
325;SDS011;150;52.352;14.058;2023-02-21T04:47:25;5.00;;;3.40;;
325;SDS011;150;52.352;14.058;2023-02-21T04:49:52;6.80;;;3.67;;
325;SDS011;150;52.352;14.058;2023-02-21T04:52:18;5.68;;;3.45;;
325;SDS011;150;52.352;14.058;2023-02-21T04:54:45;6.78;;;4.00;;
325;SDS011;150;52.352;14.058;2023-02-21T04:57:12;5.18;;;3.80;;
325;SDS011;150;52.352;14.058;2023-02-21T04:59:39;5.38;;;4.07;;
325;SDS011;150;52.352;14.058;2023-02-21T05:02:05;5.75;;;3.95;;
325;SDS011;150;52.352;14.058;2023-02-21T05:04:33;6.47;;;4.37;;
325;SDS011;150;52.352;14.058;2023-02-21T05:07:00;6.85;;;4.18;;
325;SDS011;150;52.352;14.058;2023-02-21T05:09:27;7.53;;;4.18;;
325;SDS011;150;52.352;14.058;2023-02-21T05:11:54;5.45;;;3.70;;
325;SDS011;150;52.352;14.058;2023-02-21T05:14:20;5.73;;;3.83;;
325;SDS011;150;52.352;14.058;2023-02-21T05:16:47;9.32;;;4.80;;
325;SDS011;150;52.352;14.058;2023-02-21T05:19:16;6.50;;;4.20;;
325;SDS011;150;52.352;14.058;2023-02-21T05:21:52;8.35;;;5.43;;
325;SDS011;150;52.352;14.058;2023-02-21T05:24:19;7.20;;;4.38;;
325;SDS011;150;52.352;14.058;2023-02-21T05:26:46;6.82;;;4.43;;
325;SDS011;150;52.352;14.058;2023-02-21T05:29:13;6.20;;;4.50;;
325;SDS011;150;52.352;14.058;2023-02-21T05:31:40;6.93;;;4.97;;
325;SDS011;150;52.352;14.058;2023-02-21T05:34:06;8.55;;;5.03;;
325;SDS011;150;52.352;14.058;2023-02-21T05:36:33;8.10;;;4.28;;
325;SDS011;150;52.352;14.058;2023-02-21T05:39:01;6.90;;;4.60;;
325;SDS011;150;52.352;14.058;2023-02-21T05:41:28;6.63;;;4.70;;
325;SDS011;150;52.352;14.058;2023-02-21T05:43:55;7.75;;;4.47;;
325;SDS011;150;52.352;14.058;2023-02-21T05:46:23;6.93;;;4.68;;
325;SDS011;150;52.352;14.058;2023-02-21T05:48:51;6.32;;;4.30;;
325;SDS011;150;52.352;14.058;2023-02-21T05:51:18;7.13;;;3.97;;
325;SDS011;150;52.352;14.058;2023-02-21T05:53:45;7.15;;;4.63;;
325;SDS011;150;52.352;14.058;2023-02-21T05:56:14;10.10;;;5.78;;
325;SDS011;150;52.352;14.058;2023-02-21T05:58:41;7.50;;;5.20;;
325;SDS011;150;52.352;14.058;2023-02-21T06:01:08;8.13;;;5.40;;
325;SDS011;150;52.352;14.058;2023-02-21T06:03:35;7.90;;;5.35;;
325;SDS011;150;52.352;14.058;2023-02-21T06:06:02;10.02;;;5.03;;
325;SDS011;150;52.352;14.058;2023-02-21T06:08:29;7.45;;;4.82;;
325;SDS011;150;52.352;14.058;2023-02-21T06:10:55;8.13;;;5.35;;
325;SDS011;150;52.352;14.058;2023-02-21T06:13:23;7.65;;;4.57;;
325;SDS011;150;52.352;14.058;2023-02-21T06:15:50;14.57;;;6.13;;
325;SDS011;150;52.352;14.058;2023-02-21T06:18:17;8.65;;;5.07;;
325;SDS011;150;52.352;14.058;2023-02-21T06:20:43;8.95;;;5.65;;
325;SDS011;150;52.352;14.058;2023-02-21T06:23:10;8.90;;;5.07;;
325;SDS011;150;52.352;14.058;2023-02-21T06:25:37;8.48;;;5.00;;
325;SDS011;150;52.352;14.058;2023-02-21T06:28:03;8.93;;;5.30;;
325;SDS011;150;52.352;14.058;2023-02-21T06:30:31;10.68;;;5.65;;
325;SDS011;150;52.352;14.058;2023-02-21T06:32:58;9.57;;;5.60;;
325;SDS011;150;52.352;14.058;2023-02-21T06:35:24;6.53;;;4.90;;
325;SDS011;150;52.352;14.058;2023-02-21T06:37:51;6.97;;;4.63;;
325;SDS011;150;52.352;14.058;2023-02-21T06:40:18;8.50;;;5.10;;
325;SDS011;150;52.352;14.058;2023-02-21T06:42:44;6.97;;;5.35;;
325;SDS011;150;52.352;14.058;2023-02-21T06:45:11;6.80;;;4.35;;
325;SDS011;150;52.352;14.058;2023-02-21T06:47:39;8.57;;;5.20;;
325;SDS011;150;52.352;14.058;2023-02-21T06:50:06;6.50;;;4.70;;
325;SDS011;150;52.352;14.058;2023-02-21T06:52:32;6.33;;;4.73;;
325;SDS011;150;52.352;14.058;2023-02-21T06:54:59;7.78;;;5.20;;
325;SDS011;150;52.352;14.058;2023-02-21T06:57:25;7.15;;;4.22;;
325;SDS011;150;52.352;14.058;2023-02-21T06:59:52;6.80;;;4.30;;
325;SDS011;150;52.352;14.058;2023-02-21T07:02:19;6.97;;;5.03;;
325;SDS011;150;52.352;14.058;2023-02-21T07:04:47;5.85;;;4.47;;
325;SDS011;150;52.352;14.058;2023-02-21T07:07:14;8.95;;;4.75;;
325;SDS011;150;52.352;14.058;2023-02-21T07:09:41;6.65;;;4.28;;
325;SDS011;150;52.352;14.058;2023-02-21T07:12:08;6.35;;;3.58;;
325;SDS011;150;52.352;14.058;2023-02-21T07:14:34;7.15;;;4.82;;
325;SDS011;150;52.352;14.058;2023-02-21T07:17:01;5.90;;;4.55;;
325;SDS011;150;52.352;14.058;2023-02-21T07:19:27;6.10;;;3.90;;
325;SDS011;150;52.352;14.058;2023-02-21T07:21:55;6.07;;;3.80;;
325;SDS011;150;52.352;14.058;2023-02-21T07:24:22;5.20;;;4.00;;
325;SDS011;150;52.352;14.058;2023-02-21T07:26:48;4.10;;;2.95;;
325;SDS011;150;52.352;14.058;2023-02-21T07:29:15;4.82;;;3.47;;
325;SDS011;150;52.352;14.058;2023-02-21T07:31:42;5.05;;;3.75;;
325;SDS011;150;52.352;14.058;2023-02-21T07:34:09;6.78;;;3.58;;
325;SDS011;150;52.352;14.058;2023-02-21T07:36:37;5.50;;;2.75;;
325;SDS011;150;52.352;14.058;2023-02-21T07:39:05;3.10;;;2.08;;
325;SDS011;150;52.352;14.058;2023-02-21T07:41:31;4.20;;;2.47;;
325;SDS011;150;52.352;14.058;2023-02-21T07:43:58;2.97;;;2.28;;
325;SDS011;150;52.352;14.058;2023-02-21T07:46:26;3.00;;;1.70;;
325;SDS011;150;52.352;14.058;2023-02-21T07:48:53;2.08;;;1.50;;
325;SDS011;150;52.352;14.058;2023-02-21T07:51:20;2.53;;;1.50;;
325;SDS011;150;52.352;14.058;2023-02-21T07:53:46;2.20;;;1.48;;
325;SDS011;150;52.352;14.058;2023-02-21T07:56:14;2.88;;;1.40;;
325;SDS011;150;52.352;14.058;2023-02-21T07:58:41;1.50;;;0.90;;
325;SDS011;150;52.352;14.058;2023-02-21T08:01:08;2.25;;;1.05;;
325;SDS011;150;52.352;14.058;2023-02-21T08:03:34;4.00;;;1.90;;
325;SDS011;150;52.352;14.058;2023-02-21T08:06:02;2.70;;;1.73;;
325;SDS011;150;52.352;14.058;2023-02-21T08:08:29;2.60;;;1.58;;
325;SDS011;150;52.352;14.058;2023-02-21T08:10:58;3.23;;;2.33;;
325;SDS011;150;52.352;14.058;2023-02-21T08:13:26;4.10;;;2.40;;
325;SDS011;150;52.352;14.058;2023-02-21T08:15:52;4.00;;;2.20;;
325;SDS011;150;52.352;14.058;2023-02-21T08:18:20;3.15;;;2.30;;
325;SDS011;150;52.352;14.058;2023-02-21T08:20:48;4.10;;;2.70;;
325;SDS011;150;52.352;14.058;2023-02-21T08:23:15;3.10;;;2.00;;
325;SDS011;150;52.352;14.058;2023-02-21T08:25:43;5.00;;;2.03;;
325;SDS011;150;52.352;14.058;2023-02-21T08:28:10;2.70;;;2.08;;
325;SDS011;150;52.352;14.058;2023-02-21T08:30:39;2.97;;;2.08;;
325;SDS011;150;52.352;14.058;2023-02-21T08:33:06;2.60;;;1.90;;
325;SDS011;150;52.352;14.058;2023-02-21T08:35:33;2.85;;;1.60;;
325;SDS011;150;52.352;14.058;2023-02-21T08:37:59;2.70;;;1.20;;
325;SDS011;150;52.352;14.058;2023-02-21T08:40:28;2.70;;;1.60;;
325;SDS011;150;52.352;14.058;2023-02-21T08:43:09;2.53;;;1.50;;
325;SDS011;150;52.352;14.058;2023-02-21T08:45:48;2.30;;;1.23;;
325;SDS011;150;52.352;14.058;2023-02-21T08:52:18;1.90;;;1.00;;
325;SDS011;150;52.352;14.058;2023-02-21T08:55:03;2.50;;;1.10;;
325;SDS011;150;52.352;14.058;2023-02-21T08:58:16;1.73;;;0.80;;
325;SDS011;150;52.352;14.058;2023-02-21T09:13:35;1.42;;;0.70;;
325;SDS011;150;52.352;14.058;2023-02-21T09:19:59;1.60;;;0.70;;
325;SDS011;150;52.352;14.058;2023-02-21T09:23:22;1.80;;;0.70;;
325;SDS011;150;52.352;14.058;2023-02-21T09:33:39;2.25;;;0.90;;
325;SDS011;150;52.352;14.058;2023-02-21T09:36:53;1.58;;;0.80;;
325;SDS011;150;52.352;14.058;2023-02-21T09:39:57;2.50;;;1.08;;
325;SDS011;150;52.352;14.058;2023-02-21T09:43:31;1.53;;;0.77;;
325;SDS011;150;52.352;14.058;2023-02-21T09:45:59;1.15;;;0.73;;
325;SDS011;150;52.352;14.058;2023-02-21T09:48:28;1.40;;;0.63;;
325;SDS011;150;52.352;14.058;2023-02-21T09:50:56;1.40;;;0.80;;
325;SDS011;150;52.352;14.058;2023-02-21T09:53:26;1.65;;;0.90;;
325;SDS011;150;52.352;14.058;2023-02-21T09:55:58;1.10;;;0.60;;
325;SDS011;150;52.352;14.058;2023-02-21T09:58:29;3.00;;;0.77;;
325;SDS011;150;52.352;14.058;2023-02-21T10:00:55;1.60;;;0.80;;
325;SDS011;150;52.352;14.058;2023-02-21T10:03:30;1.20;;;0.63;;
325;SDS011;150;52.352;14.058;2023-02-21T10:06:07;1.35;;;0.70;;
325;SDS011;150;52.352;14.058;2023-02-21T10:08:49;1.60;;;0.70;;
325;SDS011;150;52.352;14.058;2023-02-21T10:11:25;1.50;;;0.70;;
325;SDS011;150;52.352;14.058;2023-02-21T10:14:01;1.75;;;0.60;;
325;SDS011;150;52.352;14.058;2023-02-21T10:16:36;1.83;;;0.70;;
325;SDS011;150;52.352;14.058;2023-02-21T10:19:08;1.50;;;0.80;;
325;SDS011;150;52.352;14.058;2023-02-21T10:21:39;2.07;;;0.80;;
325;SDS011;150;52.352;14.058;2023-02-21T10:24:10;2.55;;;0.80;;
325;SDS011;150;52.352;14.058;2023-02-21T10:26:41;3.70;;;0.80;;
325;SDS011;150;52.352;14.058;2023-02-21T10:29:16;5.22;;;1.00;;
325;SDS011;150;52.352;14.058;2023-02-21T10:31:46;3.42;;;1.08;;
325;SDS011;150;52.352;14.058;2023-02-21T10:34:19;2.53;;;0.93;;
325;SDS011;150;52.352;14.058;2023-02-21T10:36:50;3.25;;;1.00;;
325;SDS011;150;52.352;14.058;2023-02-21T10:39:19;2.63;;;0.87;;
325;SDS011;150;52.352;14.058;2023-02-21T10:41:50;2.50;;;1.10;;
325;SDS011;150;52.352;14.058;2023-02-21T10:44:20;4.00;;;0.80;;
325;SDS011;150;52.352;14.058;2023-02-21T10:46:52;2.00;;;0.90;;
325;SDS011;150;52.352;14.058;2023-02-21T10:49:27;1.83;;;0.63;;
325;SDS011;150;52.352;14.058;2023-02-21T10:52:03;2.60;;;1.10;;
325;SDS011;150;52.352;14.058;2023-02-21T10:54:33;3.78;;;1.08;;
325;SDS011;150;52.352;14.058;2023-02-21T10:57:02;4.07;;;1.17;;
325;SDS011;150;52.352;14.058;2023-02-21T10:59:32;2.80;;;0.70;;
325;SDS011;150;52.352;14.058;2023-02-21T11:02:00;2.10;;;1.10;;
325;SDS011;150;52.352;14.058;2023-02-21T11:04:53;3.70;;;0.93;;
325;SDS011;150;52.352;14.058;2023-02-21T11:07:20;2.35;;;1.08;;
325;SDS011;150;52.352;14.058;2023-02-21T11:09:48;5.43;;;1.45;;
325;SDS011;150;52.352;14.058;2023-02-21T11:12:21;4.47;;;1.30;;
325;SDS011;150;52.352;14.058;2023-02-21T11:15:03;3.30;;;1.30;;
325;SDS011;150;52.352;14.058;2023-02-21T11:17:33;2.22;;;1.00;;
325;SDS011;150;52.352;14.058;2023-02-21T11:20:02;6.32;;;1.50;;
325;SDS011;150;52.352;14.058;2023-02-21T11:22:41;5.20;;;1.02;;
325;SDS011;150;52.352;14.058;2023-02-21T11:25:14;1.67;;;0.90;;
325;SDS011;150;52.352;14.058;2023-02-21T11:27:58;5.00;;;1.20;;
325;SDS011;150;52.352;14.058;2023-02-21T11:30:28;3.67;;;1.30;;
325;SDS011;150;52.352;14.058;2023-02-21T11:32:58;5.38;;;0.88;;
325;SDS011;150;52.352;14.058;2023-02-21T11:35:26;1.98;;;1.05;;
325;SDS011;150;52.352;14.058;2023-02-21T11:37:56;6.72;;;1.00;;
325;SDS011;150;52.352;14.058;2023-02-21T11:40:25;9.40;;;2.15;;
325;SDS011;150;52.352;14.058;2023-02-21T11:45:55;4.20;;;0.90;;
325;SDS011;150;52.352;14.058;2023-02-21T11:48:29;3.22;;;1.05;;
325;SDS011;150;52.352;14.058;2023-02-21T11:51:02;5.32;;;1.48;;
325;SDS011;150;52.352;14.058;2023-02-21T11:53:33;5.03;;;1.15;;
325;SDS011;150;52.352;14.058;2023-02-21T11:56:05;8.90;;;1.75;;
325;SDS011;150;52.352;14.058;2023-02-21T11:58:44;3.58;;;1.52;;
325;SDS011;150;52.352;14.058;2023-02-21T12:01:20;7.20;;;1.50;;
325;SDS011;150;52.352;14.058;2023-02-21T12:07:10;5.10;;;1.67;;
325;SDS011;150;52.352;14.058;2023-02-21T12:09:43;4.40;;;1.10;;
325;SDS011;150;52.352;14.058;2023-02-21T12:12:19;8.75;;;1.50;;
325;SDS011;150;52.352;14.058;2023-02-21T12:15:12;4.88;;;1.30;;
325;SDS011;150;52.352;14.058;2023-02-21T12:17:56;6.63;;;1.60;;
325;SDS011;150;52.352;14.058;2023-02-21T12:20:43;7.47;;;1.48;;
325;SDS011;150;52.352;14.058;2023-02-21T12:23:21;4.57;;;1.67;;
325;SDS011;150;52.352;14.058;2023-02-21T12:25:57;8.70;;;1.60;;
325;SDS011;150;52.352;14.058;2023-02-21T12:28:36;8.60;;;1.63;;
325;SDS011;150;52.352;14.058;2023-02-21T12:31:20;4.97;;;1.40;;
325;SDS011;150;52.352;14.058;2023-02-21T12:33:56;6.60;;;1.15;;
325;SDS011;150;52.352;14.058;2023-02-21T12:36:38;7.73;;;1.20;;
325;SDS011;150;52.352;14.058;2023-02-21T12:39:27;5.00;;;1.40;;
325;SDS011;150;52.352;14.058;2023-02-21T12:42:17;9.20;;;1.58;;
325;SDS011;150;52.352;14.058;2023-02-21T12:44:55;6.35;;;1.67;;
325;SDS011;150;52.352;14.058;2023-02-21T12:47:32;6.32;;;1.90;;
325;SDS011;150;52.352;14.058;2023-02-21T12:50:05;7.47;;;1.73;;
325;SDS011;150;52.352;14.058;2023-02-21T12:52:39;4.80;;;1.85;;
325;SDS011;150;52.352;14.058;2023-02-21T12:55:15;6.35;;;1.90;;
325;SDS011;150;52.352;14.058;2023-02-21T12:57:48;6.72;;;2.20;;
325;SDS011;150;52.352;14.058;2023-02-21T13:00:19;4.07;;;1.60;;
325;SDS011;150;52.352;14.058;2023-02-21T13:02:51;3.20;;;1.00;;
325;SDS011;150;52.352;14.058;2023-02-21T13:05:27;5.32;;;1.33;;
325;SDS011;150;52.352;14.058;2023-02-21T13:08:02;3.10;;;1.40;;
325;SDS011;150;52.352;14.058;2023-02-21T13:10:47;5.45;;;1.05;;
325;SDS011;150;52.352;14.058;2023-02-21T13:13:18;4.75;;;1.30;;
325;SDS011;150;52.352;14.058;2023-02-21T13:15:47;4.93;;;1.65;;
325;SDS011;150;52.352;14.058;2023-02-21T13:18:20;5.13;;;1.30;;
325;SDS011;150;52.352;14.058;2023-02-21T13:20:51;6.25;;;1.50;;
325;SDS011;150;52.352;14.058;2023-02-21T13:23:20;5.07;;;1.40;;
325;SDS011;150;52.352;14.058;2023-02-21T13:26:11;8.47;;;2.40;;
325;SDS011;150;52.352;14.058;2023-02-21T13:28:50;5.90;;;1.52;;
325;SDS011;150;52.352;14.058;2023-02-21T13:31:18;5.20;;;2.10;;
325;SDS011;150;52.352;14.058;2023-02-21T13:33:49;5.70;;;1.77;;
325;SDS011;150;52.352;14.058;2023-02-21T13:36:22;4.70;;;1.20;;
325;SDS011;150;52.352;14.058;2023-02-21T13:38:59;10.70;;;1.85;;
325;SDS011;150;52.352;14.058;2023-02-21T13:41:29;4.30;;;1.55;;
325;SDS011;150;52.352;14.058;2023-02-21T13:44:03;5.00;;;2.08;;
325;SDS011;150;52.352;14.058;2023-02-21T13:49:43;3.50;;;1.27;;
325;SDS011;150;52.352;14.058;2023-02-21T13:52:31;2.43;;;1.00;;
325;SDS011;150;52.352;14.058;2023-02-21T13:55:27;8.05;;;1.75;;
325;SDS011;150;52.352;14.058;2023-02-21T14:01:19;12.30;;;2.38;;
325;SDS011;150;52.352;14.058;2023-02-21T14:07:05;9.65;;;1.70;;
325;SDS011;150;52.352;14.058;2023-02-21T14:09:33;11.35;;;1.60;;
325;SDS011;150;52.352;14.058;2023-02-21T14:12:01;8.70;;;2.00;;
325;SDS011;150;52.352;14.058;2023-02-21T14:14:30;7.85;;;1.60;;
325;SDS011;150;52.352;14.058;2023-02-21T14:17:02;6.43;;;1.48;;
325;SDS011;150;52.352;14.058;2023-02-21T14:19:31;8.65;;;1.80;;
325;SDS011;150;52.352;14.058;2023-02-21T14:22:01;5.05;;;1.85;;
325;SDS011;150;52.352;14.058;2023-02-21T14:24:36;7.30;;;1.83;;
325;SDS011;150;52.352;14.058;2023-02-21T14:27:29;6.47;;;1.87;;
325;SDS011;150;52.352;14.058;2023-02-21T14:32:54;6.55;;;1.50;;
325;SDS011;150;52.352;14.058;2023-02-21T14:35:33;4.68;;;2.10;;
325;SDS011;150;52.352;14.058;2023-02-21T14:38:02;6.60;;;1.85;;
325;SDS011;150;52.352;14.058;2023-02-21T14:40:35;8.80;;;1.80;;
325;SDS011;150;52.352;14.058;2023-02-21T14:43:20;11.90;;;2.25;;
325;SDS011;150;52.352;14.058;2023-02-21T14:46:05;9.10;;;2.20;;
325;SDS011;150;52.352;14.058;2023-02-21T14:48:51;2.30;;;0.93;;
325;SDS011;150;52.352;14.058;2023-02-21T14:54:44;5.18;;;1.48;;
325;SDS011;150;52.352;14.058;2023-02-21T15:00:32;11.55;;;2.45;;
325;SDS011;150;52.352;14.058;2023-02-21T15:03:11;15.50;;;1.83;;
325;SDS011;150;52.352;14.058;2023-02-21T15:05:52;11.13;;;2.20;;
325;SDS011;150;52.352;14.058;2023-02-21T15:08:25;5.97;;;2.10;;
325;SDS011;150;52.352;14.058;2023-02-21T15:10:53;5.40;;;1.40;;
325;SDS011;150;52.352;14.058;2023-02-21T15:13:25;7.88;;;1.88;;
325;SDS011;150;52.352;14.058;2023-02-21T15:15:57;5.93;;;1.80;;
325;SDS011;150;52.352;14.058;2023-02-21T15:18:26;7.72;;;2.13;;
325;SDS011;150;52.352;14.058;2023-02-21T15:21:01;5.50;;;2.00;;
325;SDS011;150;52.352;14.058;2023-02-21T15:23:30;9.00;;;1.85;;
325;SDS011;150;52.352;14.058;2023-02-21T15:25:57;6.43;;;1.77;;
325;SDS011;150;52.352;14.058;2023-02-21T15:28:29;4.85;;;1.88;;
325;SDS011;150;52.352;14.058;2023-02-21T15:30:58;6.68;;;2.47;;
325;SDS011;150;52.352;14.058;2023-02-21T15:33:27;6.80;;;2.57;;
325;SDS011;150;52.352;14.058;2023-02-21T15:35:58;6.90;;;1.38;;
325;SDS011;150;52.352;14.058;2023-02-21T15:38:28;4.90;;;1.63;;
325;SDS011;150;52.352;14.058;2023-02-21T15:41:03;3.95;;;1.63;;
325;SDS011;150;52.352;14.058;2023-02-21T15:43:37;7.60;;;2.30;;
325;SDS011;150;52.352;14.058;2023-02-21T15:46:08;5.30;;;1.50;;
325;SDS011;150;52.352;14.058;2023-02-21T15:48:40;7.93;;;2.42;;
325;SDS011;150;52.352;14.058;2023-02-21T15:51:07;8.37;;;2.30;;
325;SDS011;150;52.352;14.058;2023-02-21T15:53:35;11.57;;;2.40;;
325;SDS011;150;52.352;14.058;2023-02-21T15:56:19;6.28;;;1.70;;
325;SDS011;150;52.352;14.058;2023-02-21T16:01:42;7.23;;;2.40;;
325;SDS011;150;52.352;14.058;2023-02-21T16:04:13;5.50;;;2.20;;
325;SDS011;150;52.352;14.058;2023-02-21T16:06:44;7.37;;;1.80;;
325;SDS011;150;52.352;14.058;2023-02-21T16:09:19;6.97;;;2.30;;
325;SDS011;150;52.352;14.058;2023-02-21T16:11:53;7.00;;;2.35;;
325;SDS011;150;52.352;14.058;2023-02-21T16:14:25;10.43;;;2.00;;
325;SDS011;150;52.352;14.058;2023-02-21T16:17:05;7.95;;;2.28;;
325;SDS011;150;52.352;14.058;2023-02-21T16:19:46;6.85;;;1.55;;
325;SDS011;150;52.352;14.058;2023-02-21T16:22:22;8.43;;;2.20;;
325;SDS011;150;52.352;14.058;2023-02-21T16:25:06;10.07;;;2.10;;
325;SDS011;150;52.352;14.058;2023-02-21T16:27:40;5.75;;;1.92;;
325;SDS011;150;52.352;14.058;2023-02-21T16:30:12;9.07;;;2.25;;
325;SDS011;150;52.352;14.058;2023-02-21T16:32:41;4.28;;;1.95;;
325;SDS011;150;52.352;14.058;2023-02-21T16:35:14;7.45;;;2.20;;
325;SDS011;150;52.352;14.058;2023-02-21T16:37:45;8.85;;;2.45;;
325;SDS011;150;52.352;14.058;2023-02-21T16:40:13;8.57;;;3.05;;
325;SDS011;150;52.352;14.058;2023-02-21T16:42:44;5.85;;;1.70;;
325;SDS011;150;52.352;14.058;2023-02-21T16:45:12;10.10;;;1.97;;
325;SDS011;150;52.352;14.058;2023-02-21T16:47:39;4.13;;;2.13;;
325;SDS011;150;52.352;14.058;2023-02-21T16:50:08;11.02;;;2.00;;
325;SDS011;150;52.352;14.058;2023-02-21T16:52:45;9.82;;;2.88;;
325;SDS011;150;52.352;14.058;2023-02-21T16:55:13;8.15;;;2.05;;
325;SDS011;150;52.352;14.058;2023-02-21T16:57:45;8.13;;;2.45;;
325;SDS011;150;52.352;14.058;2023-02-21T17:00:15;9.90;;;2.43;;
325;SDS011;150;52.352;14.058;2023-02-21T17:02:44;6.70;;;2.20;;
325;SDS011;150;52.352;14.058;2023-02-21T17:05:11;14.55;;;2.40;;
325;SDS011;150;52.352;14.058;2023-02-21T17:07:37;6.00;;;2.22;;
325;SDS011;150;52.352;14.058;2023-02-21T17:10:04;8.07;;;1.40;;
325;SDS011;150;52.352;14.058;2023-02-21T17:12:32;7.50;;;2.58;;